sensor_id;sensor_type;location;lat;lon;timestamp;temperature;humidity
2327;DHT22;1174;51.588;7.328;2024-02-28T00:00:24;1.60;99.90
2327;DHT22;1174;51.588;7.328;2024-02-28T00:02:51;1.50;99.90
2327;DHT22;1174;51.588;7.328;2024-02-28T00:05:18;1.60;99.90
2327;DHT22;1174;51.588;7.328;2024-02-28T00:07:44;1.50;99.90
2327;DHT22;1174;51.588;7.328;2024-02-28T00:10:12;1.60;99.90
2327;DHT22;1174;51.588;7.328;2024-02-28T00:12:39;1.60;99.90
2327;DHT22;1174;51.588;7.328;2024-02-28T00:15:08;1.50;99.90
2327;DHT22;1174;51.588;7.328;2024-02-28T00:17:38;1.60;99.90
2327;DHT22;1174;51.588;7.328;2024-02-28T00:20:06;1.70;99.90
2327;DHT22;1174;51.588;7.328;2024-02-28T00:22:34;1.70;99.90
2327;DHT22;1174;51.588;7.328;2024-02-28T00:25:01;1.70;99.90
2327;DHT22;1174;51.588;7.328;2024-02-28T00:27:28;1.70;99.90
2327;DHT22;1174;51.588;7.328;2024-02-28T00:29:55;1.80;99.90
2327;DHT22;1174;51.588;7.328;2024-02-28T00:32:23;1.80;99.90
2327;DHT22;1174;51.588;7.328;2024-02-28T00:34:49;1.70;99.90
2327;DHT22;1174;51.588;7.328;2024-02-28T00:37:16;1.60;99.90
2327;DHT22;1174;51.588;7.328;2024-02-28T00:39:44;1.50;99.90
2327;DHT22;1174;51.588;7.328;2024-02-28T00:42:11;1.40;99.90
2327;DHT22;1174;51.588;7.328;2024-02-28T00:44:38;1.40;99.90
2327;DHT22;1174;51.588;7.328;2024-02-28T00:47:07;1.30;99.90
2327;DHT22;1174;51.588;7.328;2024-02-28T00:49:35;1.30;99.90
2327;DHT22;1174;51.588;7.328;2024-02-28T00:52:03;1.40;99.90
2327;DHT22;1174;51.588;7.328;2024-02-28T00:54:29;1.30;99.90
2327;DHT22;1174;51.588;7.328;2024-02-28T00:56:56;1.20;99.90
2327;DHT22;1174;51.588;7.328;2024-02-28T00:59:23;1.10;99.90
2327;DHT22;1174;51.588;7.328;2024-02-28T01:01:49;1.10;99.90
2327;DHT22;1174;51.588;7.328;2024-02-28T01:04:17;1.00;99.90
2327;DHT22;1174;51.588;7.328;2024-02-28T01:06:45;1.10;99.90
2327;DHT22;1174;51.588;7.328;2024-02-28T01:09:11;1.10;99.90
2327;DHT22;1174;51.588;7.328;2024-02-28T01:11:38;0.90;99.90
2327;DHT22;1174;51.588;7.328;2024-02-28T01:14:05;0.90;99.90
2327;DHT22;1174;51.588;7.328;2024-02-28T01:16:32;1.00;99.90
2327;DHT22;1174;51.588;7.328;2024-02-28T01:18:58;1.10;99.90
2327;DHT22;1174;51.588;7.328;2024-02-28T01:21:25;1.10;99.90
2327;DHT22;1174;51.588;7.328;2024-02-28T01:23:53;1.10;99.90
2327;DHT22;1174;51.588;7.328;2024-02-28T01:26:20;1.10;99.90
2327;DHT22;1174;51.588;7.328;2024-02-28T01:28:47;1.30;99.90
2327;DHT22;1174;51.588;7.328;2024-02-28T01:31:14;1.30;99.90
2327;DHT22;1174;51.588;7.328;2024-02-28T01:33:41;1.30;99.90
2327;DHT22;1174;51.588;7.328;2024-02-28T01:36:08;1.30;99.90
2327;DHT22;1174;51.588;7.328;2024-02-28T01:38:34;1.40;99.90
2327;DHT22;1174;51.588;7.328;2024-02-28T01:41:03;1.40;99.90
2327;DHT22;1174;51.588;7.328;2024-02-28T01:43:30;1.40;99.90
2327;DHT22;1174;51.588;7.328;2024-02-28T01:46:00;1.40;99.90
2327;DHT22;1174;51.588;7.328;2024-02-28T01:48:27;1.30;99.90
2327;DHT22;1174;51.588;7.328;2024-02-28T01:50:55;1.30;99.90
2327;DHT22;1174;51.588;7.328;2024-02-28T01:53:22;1.20;99.90
2327;DHT22;1174;51.588;7.328;2024-02-28T01:55:49;1.00;99.90
2327;DHT22;1174;51.588;7.328;2024-02-28T01:58:18;0.80;99.90
2327;DHT22;1174;51.588;7.328;2024-02-28T02:00:46;0.90;99.90
2327;DHT22;1174;51.588;7.328;2024-02-28T02:03:13;0.80;99.90
2327;DHT22;1174;51.588;7.328;2024-02-28T02:05:48;0.80;99.90
2327;DHT22;1174;51.588;7.328;2024-02-28T02:08:15;0.80;99.90
2327;DHT22;1174;51.588;7.328;2024-02-28T02:10:41;0.90;99.90
2327;DHT22;1174;51.588;7.328;2024-02-28T02:13:08;0.90;99.90
2327;DHT22;1174;51.588;7.328;2024-02-28T02:15:36;0.90;99.90
2327;DHT22;1174;51.588;7.328;2024-02-28T02:18:04;1.10;99.90
2327;DHT22;1174;51.588;7.328;2024-02-28T02:20:32;1.00;99.90
2327;DHT22;1174;51.588;7.328;2024-02-28T02:23:04;1.00;99.90
2327;DHT22;1174;51.588;7.328;2024-02-28T02:25:31;1.00;99.90
2327;DHT22;1174;51.588;7.328;2024-02-28T02:27:57;1.10;99.90
2327;DHT22;1174;51.588;7.328;2024-02-28T02:30:24;1.00;99.90
2327;DHT22;1174;51.588;7.328;2024-02-28T02:32:51;1.10;99.90
2327;DHT22;1174;51.588;7.328;2024-02-28T02:35:18;1.10;99.90
2327;DHT22;1174;51.588;7.328;2024-02-28T02:37:44;1.10;99.90
2327;DHT22;1174;51.588;7.328;2024-02-28T02:40:15;1.00;99.90
2327;DHT22;1174;51.588;7.328;2024-02-28T02:42:42;1.00;99.90
2327;DHT22;1174;51.588;7.328;2024-02-28T02:45:09;1.00;99.90
2327;DHT22;1174;51.588;7.328;2024-02-28T02:47:39;0.90;99.90
2327;DHT22;1174;51.588;7.328;2024-02-28T02:50:06;0.70;99.90
2327;DHT22;1174;51.588;7.328;2024-02-28T02:52:33;0.80;99.90
2327;DHT22;1174;51.588;7.328;2024-02-28T02:55:00;0.80;99.90
2327;DHT22;1174;51.588;7.328;2024-02-28T02:57:28;1.10;99.90
2327;DHT22;1174;51.588;7.328;2024-02-28T02:59:56;1.30;99.90
2327;DHT22;1174;51.588;7.328;2024-02-28T03:02:23;1.40;99.90
2327;DHT22;1174;51.588;7.328;2024-02-28T03:04:49;1.50;99.90
2327;DHT22;1174;51.588;7.328;2024-02-28T03:07:16;1.60;99.90
2327;DHT22;1174;51.588;7.328;2024-02-28T03:09:43;1.40;99.90
2327;DHT22;1174;51.588;7.328;2024-02-28T03:12:11;1.40;99.90
2327;DHT22;1174;51.588;7.328;2024-02-28T03:14:39;1.60;99.90
2327;DHT22;1174;51.588;7.328;2024-02-28T03:17:06;1.60;99.90
2327;DHT22;1174;51.588;7.328;2024-02-28T03:19:33;1.80;99.90
2327;DHT22;1174;51.588;7.328;2024-02-28T03:22:01;1.90;99.90
2327;DHT22;1174;51.588;7.328;2024-02-28T03:24:28;2.10;99.90
2327;DHT22;1174;51.588;7.328;2024-02-28T03:26:55;2.10;99.90
2327;DHT22;1174;51.588;7.328;2024-02-28T03:29:21;2.20;99.90
2327;DHT22;1174;51.588;7.328;2024-02-28T03:31:49;2.10;99.90
2327;DHT22;1174;51.588;7.328;2024-02-28T03:34:16;2.20;99.90
2327;DHT22;1174;51.588;7.328;2024-02-28T03:36:43;2.40;99.90
2327;DHT22;1174;51.588;7.328;2024-02-28T03:39:10;2.50;99.90
2327;DHT22;1174;51.588;7.328;2024-02-28T03:41:36;2.50;99.90
2327;DHT22;1174;51.588;7.328;2024-02-28T03:44:03;2.60;99.90
2327;DHT22;1174;51.588;7.328;2024-02-28T03:46:30;2.70;99.90
2327;DHT22;1174;51.588;7.328;2024-02-28T03:48:58;2.80;99.90
2327;DHT22;1174;51.588;7.328;2024-02-28T03:51:25;2.80;99.90
2327;DHT22;1174;51.588;7.328;2024-02-28T03:53:52;2.80;99.90
2327;DHT22;1174;51.588;7.328;2024-02-28T03:56:22;2.90;99.90
2327;DHT22;1174;51.588;7.328;2024-02-28T03:58:49;2.90;99.90
2327;DHT22;1174;51.588;7.328;2024-02-28T04:01:16;3.00;99.90
2327;DHT22;1174;51.588;7.328;2024-02-28T04:03:43;3.10;99.90
2327;DHT22;1174;51.588;7.328;2024-02-28T04:06:11;3.00;99.90
2327;DHT22;1174;51.588;7.328;2024-02-28T04:08:40;3.00;99.90
2327;DHT22;1174;51.588;7.328;2024-02-28T04:11:06;3.20;99.90
2327;DHT22;1174;51.588;7.328;2024-02-28T04:13:33;3.20;99.90
2327;DHT22;1174;51.588;7.328;2024-02-28T04:16:01;3.20;99.90
2327;DHT22;1174;51.588;7.328;2024-02-28T04:18:28;3.30;99.90
2327;DHT22;1174;51.588;7.328;2024-02-28T04:20:55;3.40;99.90
2327;DHT22;1174;51.588;7.328;2024-02-28T04:23:23;3.40;99.90
2327;DHT22;1174;51.588;7.328;2024-02-28T04:25:50;3.50;99.90
2327;DHT22;1174;51.588;7.328;2024-02-28T04:28:17;3.30;99.90
2327;DHT22;1174;51.588;7.328;2024-02-28T04:30:44;3.30;99.90
2327;DHT22;1174;51.588;7.328;2024-02-28T04:33:10;3.40;99.90
2327;DHT22;1174;51.588;7.328;2024-02-28T04:35:37;3.40;99.90
2327;DHT22;1174;51.588;7.328;2024-02-28T04:38:04;3.30;99.90
2327;DHT22;1174;51.588;7.328;2024-02-28T04:40:32;3.50;99.90
2327;DHT22;1174;51.588;7.328;2024-02-28T04:42:59;3.60;99.90
2327;DHT22;1174;51.588;7.328;2024-02-28T04:45:25;3.60;99.90
2327;DHT22;1174;51.588;7.328;2024-02-28T04:47:52;3.50;99.90
2327;DHT22;1174;51.588;7.328;2024-02-28T04:50:20;3.50;99.90
2327;DHT22;1174;51.588;7.328;2024-02-28T04:52:47;3.60;99.90
2327;DHT22;1174;51.588;7.328;2024-02-28T04:55:14;3.50;99.90
2327;DHT22;1174;51.588;7.328;2024-02-28T04:57:42;3.70;99.90
2327;DHT22;1174;51.588;7.328;2024-02-28T05:00:09;3.70;99.90
2327;DHT22;1174;51.588;7.328;2024-02-28T05:02:36;3.70;99.90
2327;DHT22;1174;51.588;7.328;2024-02-28T05:05:03;3.80;99.90
2327;DHT22;1174;51.588;7.328;2024-02-28T05:07:30;3.70;99.90
2327;DHT22;1174;51.588;7.328;2024-02-28T05:09:57;3.60;99.90
2327;DHT22;1174;51.588;7.328;2024-02-28T05:12:23;3.40;99.90
2327;DHT22;1174;51.588;7.328;2024-02-28T05:14:52;3.50;99.90
2327;DHT22;1174;51.588;7.328;2024-02-28T05:17:18;3.30;99.90
2327;DHT22;1174;51.588;7.328;2024-02-28T05:19:45;3.40;99.90
2327;DHT22;1174;51.588;7.328;2024-02-28T05:22:12;3.50;99.90
2327;DHT22;1174;51.588;7.328;2024-02-28T05:24:39;3.60;99.90
2327;DHT22;1174;51.588;7.328;2024-02-28T05:27:08;3.70;99.90
2327;DHT22;1174;51.588;7.328;2024-02-28T05:29:35;3.90;99.90
2327;DHT22;1174;51.588;7.328;2024-02-28T05:32:04;3.90;99.90
2327;DHT22;1174;51.588;7.328;2024-02-28T05:34:31;3.90;99.90
2327;DHT22;1174;51.588;7.328;2024-02-28T05:36:58;4.10;99.90
2327;DHT22;1174;51.588;7.328;2024-02-28T05:39:26;4.10;99.90
2327;DHT22;1174;51.588;7.328;2024-02-28T05:41:54;4.10;99.90
2327;DHT22;1174;51.588;7.328;2024-02-28T05:44:21;4.20;99.90
2327;DHT22;1174;51.588;7.328;2024-02-28T05:46:48;4.20;99.90
2327;DHT22;1174;51.588;7.328;2024-02-28T05:49:16;4.30;99.90
2327;DHT22;1174;51.588;7.328;2024-02-28T05:51:43;4.30;99.90
2327;DHT22;1174;51.588;7.328;2024-02-28T05:54:10;4.40;99.90
2327;DHT22;1174;51.588;7.328;2024-02-28T05:56:37;4.50;99.90
2327;DHT22;1174;51.588;7.328;2024-02-28T05:59:03;4.40;99.90
2327;DHT22;1174;51.588;7.328;2024-02-28T06:01:30;4.50;99.90
2327;DHT22;1174;51.588;7.328;2024-02-28T06:03:57;4.40;99.90
2327;DHT22;1174;51.588;7.328;2024-02-28T06:06:25;4.50;99.90
2327;DHT22;1174;51.588;7.328;2024-02-28T06:08:52;4.60;99.90
2327;DHT22;1174;51.588;7.328;2024-02-28T06:11:19;4.70;99.90
2327;DHT22;1174;51.588;7.328;2024-02-28T06:13:45;4.60;99.90
2327;DHT22;1174;51.588;7.328;2024-02-28T06:16:15;4.60;99.90
2327;DHT22;1174;51.588;7.328;2024-02-28T06:18:43;4.60;99.90
2327;DHT22;1174;51.588;7.328;2024-02-28T06:21:10;4.60;99.90
2327;DHT22;1174;51.588;7.328;2024-02-28T06:23:38;4.60;99.90
2327;DHT22;1174;51.588;7.328;2024-02-28T06:26:05;4.70;99.90
2327;DHT22;1174;51.588;7.328;2024-02-28T06:28:31;4.70;99.90
2327;DHT22;1174;51.588;7.328;2024-02-28T06:30:58;4.80;99.90
2327;DHT22;1174;51.588;7.328;2024-02-28T06:33:25;4.70;99.90
2327;DHT22;1174;51.588;7.328;2024-02-28T06:35:52;4.80;99.90
2327;DHT22;1174;51.588;7.328;2024-02-28T06:38:19;4.80;99.90
2327;DHT22;1174;51.588;7.328;2024-02-28T06:40:47;4.80;99.90
2327;DHT22;1174;51.588;7.328;2024-02-28T06:43:14;4.60;99.90
2327;DHT22;1174;51.588;7.328;2024-02-28T06:45:41;4.50;99.90
2327;DHT22;1174;51.588;7.328;2024-02-28T06:48:08;4.60;99.90
2327;DHT22;1174;51.588;7.328;2024-02-28T06:50:35;4.80;99.90
2327;DHT22;1174;51.588;7.328;2024-02-28T06:53:01;4.80;99.90
2327;DHT22;1174;51.588;7.328;2024-02-28T06:55:29;4.80;99.90
2327;DHT22;1174;51.588;7.328;2024-02-28T06:57:57;4.90;99.90
2327;DHT22;1174;51.588;7.328;2024-02-28T07:00:24;4.90;99.90
2327;DHT22;1174;51.588;7.328;2024-02-28T07:02:50;4.90;99.90
2327;DHT22;1174;51.588;7.328;2024-02-28T07:05:18;4.90;99.90
2327;DHT22;1174;51.588;7.328;2024-02-28T07:07:45;4.70;99.90
2327;DHT22;1174;51.588;7.328;2024-02-28T07:10:12;4.70;99.90
2327;DHT22;1174;51.588;7.328;2024-02-28T07:12:39;4.90;99.90
2327;DHT22;1174;51.588;7.328;2024-02-28T07:15:07;5.10;99.90
2327;DHT22;1174;51.588;7.328;2024-02-28T07:17:34;5.10;99.90
2327;DHT22;1174;51.588;7.328;2024-02-28T07:20:01;5.10;99.90
2327;DHT22;1174;51.588;7.328;2024-02-28T07:22:28;5.10;99.90
2327;DHT22;1174;51.588;7.328;2024-02-28T07:24:54;5.30;99.90
2327;DHT22;1174;51.588;7.328;2024-02-28T07:27:22;5.40;99.90
2327;DHT22;1174;51.588;7.328;2024-02-28T07:29:49;5.50;99.90
2327;DHT22;1174;51.588;7.328;2024-02-28T07:32:19;5.50;99.90
2327;DHT22;1174;51.588;7.328;2024-02-28T07:34:45;5.60;99.90
2327;DHT22;1174;51.588;7.328;2024-02-28T07:37:12;5.60;99.90
2327;DHT22;1174;51.588;7.328;2024-02-28T07:39:39;5.60;99.90
2327;DHT22;1174;51.588;7.328;2024-02-28T07:42:06;5.70;99.90
2327;DHT22;1174;51.588;7.328;2024-02-28T07:44:32;5.80;99.90
2327;DHT22;1174;51.588;7.328;2024-02-28T07:46:59;5.80;99.90
2327;DHT22;1174;51.588;7.328;2024-02-28T07:49:27;5.70;99.90
2327;DHT22;1174;51.588;7.328;2024-02-28T07:51:54;5.80;99.90
2327;DHT22;1174;51.588;7.328;2024-02-28T07:54:21;5.80;99.90
2327;DHT22;1174;51.588;7.328;2024-02-28T07:56:48;5.80;99.90
2327;DHT22;1174;51.588;7.328;2024-02-28T07:59:15;5.80;99.90
2327;DHT22;1174;51.588;7.328;2024-02-28T08:01:42;5.70;99.90
2327;DHT22;1174;51.588;7.328;2024-02-28T08:04:08;5.80;99.90
2327;DHT22;1174;51.588;7.328;2024-02-28T08:06:36;5.70;99.90
2327;DHT22;1174;51.588;7.328;2024-02-28T08:09:03;5.70;99.90
2327;DHT22;1174;51.588;7.328;2024-02-28T08:11:30;5.70;99.90
2327;DHT22;1174;51.588;7.328;2024-02-28T08:13:57;5.70;99.90
2327;DHT22;1174;51.588;7.328;2024-02-28T08:16:24;5.70;99.90
2327;DHT22;1174;51.588;7.328;2024-02-28T08:18:51;5.50;99.90
2327;DHT22;1174;51.588;7.328;2024-02-28T08:21:17;5.40;99.90
2327;DHT22;1174;51.588;7.328;2024-02-28T08:23:46;5.50;99.90
2327;DHT22;1174;51.588;7.328;2024-02-28T08:26:13;5.30;99.90
2327;DHT22;1174;51.588;7.328;2024-02-28T08:28:40;5.40;99.90
2327;DHT22;1174;51.588;7.328;2024-02-28T08:31:07;5.50;99.90
2327;DHT22;1174;51.588;7.328;2024-02-28T08:33:34;5.60;99.90
2327;DHT22;1174;51.588;7.328;2024-02-28T08:36:00;5.60;99.90
2327;DHT22;1174;51.588;7.328;2024-02-28T08:38:27;5.70;99.90
2327;DHT22;1174;51.588;7.328;2024-02-28T08:40:55;5.60;99.90
2327;DHT22;1174;51.588;7.328;2024-02-28T08:43:22;5.50;99.90
2327;DHT22;1174;51.588;7.328;2024-02-28T08:45:49;5.60;99.90
2327;DHT22;1174;51.588;7.328;2024-02-28T08:48:17;5.80;99.90
2327;DHT22;1174;51.588;7.328;2024-02-28T08:50:44;6.10;99.90
2327;DHT22;1174;51.588;7.328;2024-02-28T08:53:10;6.20;99.90
2327;DHT22;1174;51.588;7.328;2024-02-28T08:55:37;6.30;99.90
2327;DHT22;1174;51.588;7.328;2024-02-28T08:58:05;6.30;99.90
2327;DHT22;1174;51.588;7.328;2024-02-28T09:00:32;6.30;99.90
2327;DHT22;1174;51.588;7.328;2024-02-28T09:02:59;6.50;99.90
2327;DHT22;1174;51.588;7.328;2024-02-28T09:05:27;6.70;99.90
2327;DHT22;1174;51.588;7.328;2024-02-28T09:07:54;6.70;99.90
2327;DHT22;1174;51.588;7.328;2024-02-28T09:10:21;6.90;99.90
2327;DHT22;1174;51.588;7.328;2024-02-28T09:12:49;7.00;99.90
2327;DHT22;1174;51.588;7.328;2024-02-28T09:15:17;7.20;99.90
2327;DHT22;1174;51.588;7.328;2024-02-28T09:17:44;7.10;99.90
2327;DHT22;1174;51.588;7.328;2024-02-28T09:20:11;7.00;99.90
2327;DHT22;1174;51.588;7.328;2024-02-28T09:22:38;7.30;99.90
2327;DHT22;1174;51.588;7.328;2024-02-28T09:25:06;7.50;99.90
2327;DHT22;1174;51.588;7.328;2024-02-28T09:27:34;7.70;99.90
2327;DHT22;1174;51.588;7.328;2024-02-28T09:30:01;7.90;99.90
2327;DHT22;1174;51.588;7.328;2024-02-28T09:32:29;7.90;99.90
2327;DHT22;1174;51.588;7.328;2024-02-28T09:34:56;7.90;99.90
2327;DHT22;1174;51.588;7.328;2024-02-28T09:37:22;7.70;99.90
2327;DHT22;1174;51.588;7.328;2024-02-28T09:39:50;7.50;99.90
2327;DHT22;1174;51.588;7.328;2024-02-28T09:42:18;7.50;99.90
2327;DHT22;1174;51.588;7.328;2024-02-28T09:44:45;7.80;99.90
2327;DHT22;1174;51.588;7.328;2024-02-28T09:47:13;7.80;99.90
2327;DHT22;1174;51.588;7.328;2024-02-28T09:49:42;7.90;99.90
2327;DHT22;1174;51.588;7.328;2024-02-28T09:52:09;8.10;99.90
2327;DHT22;1174;51.588;7.328;2024-02-28T09:54:35;8.10;99.90
2327;DHT22;1174;51.588;7.328;2024-02-28T09:57:04;8.20;99.90
2327;DHT22;1174;51.588;7.328;2024-02-28T09:59:31;8.20;99.90
2327;DHT22;1174;51.588;7.328;2024-02-28T10:01:58;8.30;99.90
2327;DHT22;1174;51.588;7.328;2024-02-28T10:04:27;8.80;99.90
2327;DHT22;1174;51.588;7.328;2024-02-28T10:06:56;8.70;99.90
2327;DHT22;1174;51.588;7.328;2024-02-28T10:09:22;8.60;99.90
2327;DHT22;1174;51.588;7.328;2024-02-28T10:11:49;8.70;99.90
2327;DHT22;1174;51.588;7.328;2024-02-28T10:14:19;9.10;99.90
2327;DHT22;1174;51.588;7.328;2024-02-28T10:16:46;9.50;99.90
2327;DHT22;1174;51.588;7.328;2024-02-28T10:19:12;9.40;99.90
2327;DHT22;1174;51.588;7.328;2024-02-28T10:21:39;9.20;99.90
2327;DHT22;1174;51.588;7.328;2024-02-28T10:24:07;9.20;99.90
2327;DHT22;1174;51.588;7.328;2024-02-28T10:26:42;9.00;99.90
2327;DHT22;1174;51.588;7.328;2024-02-28T10:29:09;8.70;99.90
2327;DHT22;1174;51.588;7.328;2024-02-28T10:31:36;8.40;99.90
2327;DHT22;1174;51.588;7.328;2024-02-28T10:34:04;8.40;99.90
2327;DHT22;1174;51.588;7.328;2024-02-28T10:36:32;9.20;99.90
2327;DHT22;1174;51.588;7.328;2024-02-28T10:39:00;10.20;99.90
2327;DHT22;1174;51.588;7.328;2024-02-28T10:41:28;10.70;99.90
2327;DHT22;1174;51.588;7.328;2024-02-28T10:43:56;10.80;99.90
2327;DHT22;1174;51.588;7.328;2024-02-28T10:46:23;10.40;99.90
2327;DHT22;1174;51.588;7.328;2024-02-28T10:48:50;10.40;99.90
2327;DHT22;1174;51.588;7.328;2024-02-28T10:51:23;11.00;99.90
2327;DHT22;1174;51.588;7.328;2024-02-28T10:53:57;11.20;99.90
2327;DHT22;1174;51.588;7.328;2024-02-28T10:56:30;11.80;99.90
2327;DHT22;1174;51.588;7.328;2024-02-28T10:58:59;13.10;99.90
2327;DHT22;1174;51.588;7.328;2024-02-28T11:01:26;13.80;99.90
2327;DHT22;1174;51.588;7.328;2024-02-28T11:03:53;14.20;99.90
2327;DHT22;1174;51.588;7.328;2024-02-28T11:06:22;14.00;99.90
2327;DHT22;1174;51.588;7.328;2024-02-28T11:08:49;13.40;99.90
2327;DHT22;1174;51.588;7.328;2024-02-28T11:11:18;13.00;99.90
2327;DHT22;1174;51.588;7.328;2024-02-28T11:13:58;13.00;99.90
2327;DHT22;1174;51.588;7.328;2024-02-28T11:16:27;12.70;99.90
2327;DHT22;1174;51.588;7.328;2024-02-28T11:18:54;13.10;99.90
2327;DHT22;1174;51.588;7.328;2024-02-28T11:21:23;13.40;99.90
2327;DHT22;1174;51.588;7.328;2024-02-28T11:23:51;13.70;99.90
2327;DHT22;1174;51.588;7.328;2024-02-28T11:26:18;13.90;99.90
2327;DHT22;1174;51.588;7.328;2024-02-28T11:28:46;13.90;99.90
2327;DHT22;1174;51.588;7.328;2024-02-28T11:31:14;13.60;99.90
2327;DHT22;1174;51.588;7.328;2024-02-28T11:33:41;14.10;99.90
2327;DHT22;1174;51.588;7.328;2024-02-28T11:36:08;14.10;99.90
2327;DHT22;1174;51.588;7.328;2024-02-28T11:38:38;13.70;99.90
2327;DHT22;1174;51.588;7.328;2024-02-28T11:41:05;13.70;99.90
2327;DHT22;1174;51.588;7.328;2024-02-28T11:43:32;14.20;99.90
2327;DHT22;1174;51.588;7.328;2024-02-28T11:46:00;14.10;99.90
2327;DHT22;1174;51.588;7.328;2024-02-28T11:48:28;13.90;99.90
2327;DHT22;1174;51.588;7.328;2024-02-28T11:50:56;13.80;99.90
2327;DHT22;1174;51.588;7.328;2024-02-28T11:53:24;14.20;99.90
2327;DHT22;1174;51.588;7.328;2024-02-28T11:55:52;14.60;99.90
2327;DHT22;1174;51.588;7.328;2024-02-28T11:58:19;14.90;99.90
2327;DHT22;1174;51.588;7.328;2024-02-28T12:00:47;15.50;99.90
2327;DHT22;1174;51.588;7.328;2024-02-28T12:03:15;16.00;99.90
2327;DHT22;1174;51.588;7.328;2024-02-28T12:05:47;15.70;99.90
2327;DHT22;1174;51.588;7.328;2024-02-28T12:08:14;15.30;99.90
2327;DHT22;1174;51.588;7.328;2024-02-28T12:10:41;15.10;99.90
2327;DHT22;1174;51.588;7.328;2024-02-28T12:13:07;14.80;99.90
2327;DHT22;1174;51.588;7.328;2024-02-28T12:15:34;14.80;99.90
2327;DHT22;1174;51.588;7.328;2024-02-28T12:18:07;15.00;99.90
2327;DHT22;1174;51.588;7.328;2024-02-28T12:20:34;15.20;99.90
2327;DHT22;1174;51.588;7.328;2024-02-28T12:23:04;15.30;99.90
2327;DHT22;1174;51.588;7.328;2024-02-28T12:25:31;15.60;99.90
2327;DHT22;1174;51.588;7.328;2024-02-28T12:27:57;15.60;99.90
2327;DHT22;1174;51.588;7.328;2024-02-28T12:30:24;15.40;99.90
2327;DHT22;1174;51.588;7.328;2024-02-28T12:32:51;15.60;99.90
2327;DHT22;1174;51.588;7.328;2024-02-28T12:35:18;15.70;99.90
2327;DHT22;1174;51.588;7.328;2024-02-28T12:37:45;16.20;99.90
2327;DHT22;1174;51.588;7.328;2024-02-28T12:40:16;16.80;99.90
2327;DHT22;1174;51.588;7.328;2024-02-28T12:42:43;16.60;99.90
2327;DHT22;1174;51.588;7.328;2024-02-28T12:45:10;16.10;99.90
2327;DHT22;1174;51.588;7.328;2024-02-28T12:47:36;16.10;99.90
2327;DHT22;1174;51.588;7.328;2024-02-28T12:50:04;16.20;99.90
2327;DHT22;1174;51.588;7.328;2024-02-28T12:52:32;16.30;99.90
2327;DHT22;1174;51.588;7.328;2024-02-28T12:54:59;16.30;99.90
2327;DHT22;1174;51.588;7.328;2024-02-28T12:57:27;17.00;99.90
2327;DHT22;1174;51.588;7.328;2024-02-28T12:59:54;17.00;99.90
2327;DHT22;1174;51.588;7.328;2024-02-28T13:02:23;16.60;99.90
2327;DHT22;1174;51.588;7.328;2024-02-28T13:04:49;16.70;99.90
2327;DHT22;1174;51.588;7.328;2024-02-28T13:07:16;17.00;99.90
2327;DHT22;1174;51.588;7.328;2024-02-28T13:09:45;16.80;99.90
2327;DHT22;1174;51.588;7.328;2024-02-28T13:12:12;16.40;99.90
2327;DHT22;1174;51.588;7.328;2024-02-28T13:14:40;16.40;99.90
2327;DHT22;1174;51.588;7.328;2024-02-28T13:17:06;15.80;99.90
2327;DHT22;1174;51.588;7.328;2024-02-28T13:19:33;15.50;99.90
2327;DHT22;1174;51.588;7.328;2024-02-28T13:22:00;15.00;99.90
2327;DHT22;1174;51.588;7.328;2024-02-28T13:24:26;14.60;99.90
2327;DHT22;1174;51.588;7.328;2024-02-28T13:26:53;14.30;99.90
2327;DHT22;1174;51.588;7.328;2024-02-28T13:29:23;14.10;99.90
2327;DHT22;1174;51.588;7.328;2024-02-28T13:31:52;13.60;99.90
2327;DHT22;1174;51.588;7.328;2024-02-28T13:34:19;13.40;99.90
2327;DHT22;1174;51.588;7.328;2024-02-28T13:36:45;13.50;99.90
2327;DHT22;1174;51.588;7.328;2024-02-28T13:39:12;13.50;99.90
2327;DHT22;1174;51.588;7.328;2024-02-28T13:41:39;13.70;99.90
2327;DHT22;1174;51.588;7.328;2024-02-28T13:44:06;13.70;99.90
2327;DHT22;1174;51.588;7.328;2024-02-28T13:46:34;13.70;99.90
2327;DHT22;1174;51.588;7.328;2024-02-28T13:49:02;13.60;99.90
2327;DHT22;1174;51.588;7.328;2024-02-28T13:51:30;13.80;99.90
2327;DHT22;1174;51.588;7.328;2024-02-28T13:53:57;13.90;99.90
2327;DHT22;1174;51.588;7.328;2024-02-28T13:56:24;13.90;99.90
2327;DHT22;1174;51.588;7.328;2024-02-28T13:58:51;13.80;99.90
2327;DHT22;1174;51.588;7.328;2024-02-28T14:01:17;13.90;99.90
2327;DHT22;1174;51.588;7.328;2024-02-28T14:03:44;14.10;99.90
2327;DHT22;1174;51.588;7.328;2024-02-28T14:06:12;14.20;99.90
2327;DHT22;1174;51.588;7.328;2024-02-28T14:08:40;14.30;99.90
2327;DHT22;1174;51.588;7.328;2024-02-28T14:11:07;14.10;99.90
2327;DHT22;1174;51.588;7.328;2024-02-28T14:13:33;13.90;99.90
2327;DHT22;1174;51.588;7.328;2024-02-28T14:16:00;13.70;99.90
2327;DHT22;1174;51.588;7.328;2024-02-28T14:18:27;13.60;99.90
2327;DHT22;1174;51.588;7.328;2024-02-28T14:20:54;13.60;99.90
2327;DHT22;1174;51.588;7.328;2024-02-28T14:23:22;13.60;99.90
2327;DHT22;1174;51.588;7.328;2024-02-28T14:25:49;13.30;99.90
2327;DHT22;1174;51.588;7.328;2024-02-28T14:28:16;13.10;99.90
2327;DHT22;1174;51.588;7.328;2024-02-28T14:30:44;13.10;99.90
2327;DHT22;1174;51.588;7.328;2024-02-28T14:33:14;13.20;99.90
2327;DHT22;1174;51.588;7.328;2024-02-28T14:35:41;13.40;99.90
2327;DHT22;1174;51.588;7.328;2024-02-28T14:38:08;13.30;99.90
2327;DHT22;1174;51.588;7.328;2024-02-28T14:40:36;13.20;99.90
2327;DHT22;1174;51.588;7.328;2024-02-28T14:43:03;13.00;99.90
2327;DHT22;1174;51.588;7.328;2024-02-28T14:45:31;12.90;99.90
2327;DHT22;1174;51.588;7.328;2024-02-28T14:47:57;13.00;99.90
2327;DHT22;1174;51.588;7.328;2024-02-28T14:50:24;13.00;99.90
2327;DHT22;1174;51.588;7.328;2024-02-28T14:52:51;12.80;99.90
2327;DHT22;1174;51.588;7.328;2024-02-28T14:55:17;12.70;99.90
2327;DHT22;1174;51.588;7.328;2024-02-28T14:57:46;12.60;99.90
2327;DHT22;1174;51.588;7.328;2024-02-28T15:00:13;12.40;99.90
2327;DHT22;1174;51.588;7.328;2024-02-28T15:02:40;12.30;99.90
2327;DHT22;1174;51.588;7.328;2024-02-28T15:05:07;12.50;99.90
2327;DHT22;1174;51.588;7.328;2024-02-28T15:07:35;12.60;99.90
2327;DHT22;1174;51.588;7.328;2024-02-28T15:10:02;12.60;99.90
2327;DHT22;1174;51.588;7.328;2024-02-28T15:12:30;12.60;99.90
2327;DHT22;1174;51.588;7.328;2024-02-28T15:14:59;12.80;99.90
2327;DHT22;1174;51.588;7.328;2024-02-28T15:17:27;12.90;99.90
2327;DHT22;1174;51.588;7.328;2024-02-28T15:19:54;12.90;99.90
2327;DHT22;1174;51.588;7.328;2024-02-28T15:22:21;12.90;99.90
2327;DHT22;1174;51.588;7.328;2024-02-28T15:24:48;12.80;99.90
2327;DHT22;1174;51.588;7.328;2024-02-28T15:27:15;12.60;99.90
2327;DHT22;1174;51.588;7.328;2024-02-28T15:29:41;12.60;99.90
2327;DHT22;1174;51.588;7.328;2024-02-28T15:32:12;12.60;99.90
2327;DHT22;1174;51.588;7.328;2024-02-28T15:34:39;12.60;99.90
2327;DHT22;1174;51.588;7.328;2024-02-28T15:37:06;12.60;99.90
2327;DHT22;1174;51.588;7.328;2024-02-28T15:39:34;12.50;99.90
2327;DHT22;1174;51.588;7.328;2024-02-28T15:42:01;12.40;99.90
2327;DHT22;1174;51.588;7.328;2024-02-28T15:44:28;12.40;99.90
2327;DHT22;1174;51.588;7.328;2024-02-28T15:46:54;12.30;99.90
2327;DHT22;1174;51.588;7.328;2024-02-28T15:49:23;12.10;99.90
2327;DHT22;1174;51.588;7.328;2024-02-28T15:51:50;12.00;99.90
2327;DHT22;1174;51.588;7.328;2024-02-28T15:54:17;11.90;99.90
2327;DHT22;1174;51.588;7.328;2024-02-28T15:56:43;11.80;99.90
2327;DHT22;1174;51.588;7.328;2024-02-28T15:59:11;11.80;99.90
2327;DHT22;1174;51.588;7.328;2024-02-28T16:01:38;11.80;99.90
2327;DHT22;1174;51.588;7.328;2024-02-28T16:04:05;11.90;99.90
2327;DHT22;1174;51.588;7.328;2024-02-28T16:06:33;11.90;99.90
2327;DHT22;1174;51.588;7.328;2024-02-28T16:09:00;12.00;99.90
2327;DHT22;1174;51.588;7.328;2024-02-28T16:11:31;11.90;99.90